createdAt,value
2019-05-25T00:01:11.075Z,19.30
2019-05-25T00:03:41.118Z,19.30
2019-05-25T00:06:30.478Z,19.30
2019-05-25T00:09:00.729Z,19.20
2019-05-25T00:11:30.908Z,19.20
2019-05-25T00:14:01.562Z,19.10
2019-05-25T00:16:32.479Z,19.10
2019-05-25T00:19:02.675Z,19.00
2019-05-25T00:21:33.763Z,19.00
2019-05-25T00:24:12.176Z,19.00
2019-05-25T00:26:35.497Z,19.00
2019-05-25T00:31:53.831Z,19.00
2019-05-25T00:34:24.214Z,18.90
2019-05-25T00:36:54.429Z,19.00
2019-05-25T00:39:24.627Z,19.00
2019-05-25T00:41:54.698Z,19.00
2019-05-25T00:44:24.741Z,19.00
2019-05-25T00:46:55.091Z,19.00
2019-05-25T00:49:25.613Z,18.90
2019-05-25T00:51:56.112Z,18.90
2019-05-25T00:54:28.216Z,18.90
2019-05-25T00:56:57.984Z,18.90
2019-05-25T00:59:28.054Z,18.80
2019-05-25T01:01:58.736Z,18.80
2019-05-25T01:04:28.799Z,18.80
2019-05-25T01:06:58.851Z,18.80
2019-05-25T01:09:28.868Z,18.80
2019-05-25T01:11:59.322Z,18.70
2019-05-25T01:14:29.502Z,18.70
2019-05-25T01:16:59.674Z,18.70
2019-05-25T01:19:29.763Z,18.70
2019-05-25T01:22:00.291Z,18.60
2019-05-25T01:24:43.181Z,18.60
2019-05-25T01:27:02.896Z,18.60
2019-05-25T01:29:32.960Z,18.60
2019-05-25T01:32:03.092Z,18.50
2019-05-25T01:34:33.562Z,18.50
2019-05-25T01:37:03.648Z,18.50
2019-05-25T01:39:35.429Z,18.40
2019-05-25T01:42:06.417Z,18.40
2019-05-25T01:44:36.479Z,18.40
2019-05-25T01:47:06.666Z,18.30
2019-05-25T01:49:36.970Z,18.30
2019-05-25T01:52:07.007Z,18.20
2019-05-25T01:54:37.866Z,18.20
2019-05-25T01:57:08.030Z,18.20
2019-05-25T01:59:39.239Z,18.10
2019-05-25T02:02:09.240Z,18.10
2019-05-25T02:04:39.814Z,18.10
2019-05-25T02:07:09.925Z,18.00
2019-05-25T02:09:40.233Z,18.00
2019-05-25T02:12:10.345Z,18.00
2019-05-25T02:14:40.493Z,17.90
2019-05-25T02:17:10.632Z,17.80
2019-05-25T02:19:40.994Z,17.70
2019-05-25T02:22:11.230Z,17.70
2019-05-25T02:24:42.394Z,17.70
2019-05-25T02:27:12.490Z,17.60
2019-05-25T02:29:42.600Z,17.60
2019-05-25T02:32:35.898Z,17.50
2019-05-25T02:35:06.243Z,17.50
2019-05-25T02:37:36.234Z,17.50
2019-05-25T02:40:06.577Z,17.50
2019-05-25T02:42:36.677Z,17.40
2019-05-25T02:45:06.859Z,17.40
2019-05-25T02:47:37.008Z,17.40
2019-05-25T02:50:07.079Z,17.40
2019-05-25T02:52:37.192Z,17.40
2019-05-25T02:55:08.593Z,17.30
2019-05-25T02:57:39.223Z,17.30
2019-05-25T03:00:09.661Z,17.30
2019-05-25T03:02:39.734Z,17.20
2019-05-25T03:05:11.727Z,17.20
2019-05-25T03:07:41.876Z,17.20
2019-05-25T03:10:11.874Z,17.20
2019-05-25T03:12:42.067Z,17.10
2019-05-25T03:15:12.100Z,17.10
2019-05-25T03:17:42.123Z,17.10
2019-05-25T03:20:12.202Z,17.10
2019-05-25T03:22:42.253Z,17.00
2019-05-25T03:25:13.068Z,17.00
2019-05-25T03:27:43.059Z,17.00
2019-05-25T03:30:13.098Z,16.90
2019-05-25T03:32:43.206Z,16.90
2019-05-25T03:35:13.355Z,16.90
2019-05-25T03:37:43.446Z,16.90
2019-05-25T03:40:13.460Z,16.90
2019-05-25T03:42:43.867Z,16.90
2019-05-25T03:45:13.957Z,16.90
2019-05-25T03:47:44.002Z,16.90
2019-05-25T03:50:15.150Z,16.90
2019-05-25T03:52:45.289Z,16.80
2019-05-25T03:55:15.434Z,16.90
2019-05-25T03:57:45.773Z,16.90
2019-05-25T04:00:15.895Z,16.90
2019-05-25T04:02:46.466Z,16.90
2019-05-25T04:05:19.296Z,16.90
2019-05-25T04:07:49.475Z,16.90
2019-05-25T04:10:19.594Z,17.00
2019-05-25T04:12:50.076Z,17.00
2019-05-25T04:15:20.152Z,17.00
2019-05-25T04:17:50.767Z,17.00
2019-05-25T04:20:20.753Z,17.00
2019-05-25T04:22:50.901Z,17.00
2019-05-25T04:25:20.925Z,17.00
2019-05-25T04:27:52.089Z,16.90
2019-05-25T04:30:22.167Z,16.90
2019-05-25T04:32:52.382Z,17.00
2019-05-25T04:35:22.453Z,17.00
2019-05-25T04:37:52.919Z,17.00
2019-05-25T04:40:23.360Z,17.00
2019-05-25T04:42:53.527Z,17.00
2019-05-25T04:45:23.566Z,17.10
2019-05-25T04:47:53.605Z,17.20
2019-05-25T04:50:23.736Z,17.50
2019-05-25T04:52:54.095Z,17.90
2019-05-25T04:55:24.278Z,18.40
2019-05-25T04:57:54.856Z,19.00
2019-05-25T05:00:25.002Z,19.60
2019-05-25T05:02:55.173Z,20.20
2019-05-25T05:05:25.201Z,20.80
2019-05-25T05:08:44.695Z,21.40
2019-05-25T05:10:32.986Z,22.00
2019-05-25T05:13:03.283Z,22.50
2019-05-25T05:15:33.373Z,22.90
2019-05-25T05:18:03.468Z,23.20
2019-05-25T05:20:33.528Z,23.50
2019-05-25T05:23:03.568Z,23.70
2019-05-25T05:25:33.734Z,23.90
2019-05-25T05:28:03.931Z,23.90
2019-05-25T05:30:34.243Z,24.00
2019-05-25T05:33:04.416Z,24.00
2019-05-25T05:35:38.698Z,24.10
2019-05-25T05:38:07.319Z,24.30
2019-05-25T05:40:37.982Z,24.70
2019-05-25T05:43:10.548Z,25.20
2019-05-25T05:45:42.590Z,25.80
2019-05-25T05:48:13.737Z,26.40
2019-05-25T05:50:43.859Z,27.00
2019-05-25T05:53:13.907Z,27.60
2019-05-25T05:56:04.650Z,28.30
2019-05-25T05:58:34.791Z,28.90
2019-05-25T06:01:04.809Z,29.50
2019-05-25T06:03:35.187Z,30.00
2019-05-25T06:06:05.434Z,30.40
2019-05-25T06:08:35.841Z,30.90
2019-05-25T06:11:05.872Z,31.40
2019-05-25T06:13:35.964Z,31.80
2019-05-25T06:16:06.193Z,32.20
2019-05-25T06:18:37.352Z,32.60
2019-05-25T06:21:07.445Z,33.00
2019-05-25T06:23:49.294Z,33.40
2019-05-25T06:26:19.450Z,33.90
2019-05-25T06:28:49.506Z,34.40
2019-05-25T06:31:20.343Z,34.80
2019-05-25T06:34:02.656Z,35.20
2019-05-25T06:36:29.861Z,35.60
2019-05-25T06:39:00.068Z,35.90
2019-05-25T06:41:30.205Z,36.00
2019-05-25T06:44:00.264Z,36.10
2019-05-25T06:46:30.383Z,36.10
2019-05-25T06:49:02.435Z,35.90
2019-05-25T06:51:32.644Z,35.70
2019-05-25T06:54:02.828Z,35.70
2019-05-25T06:56:33.370Z,35.70
2019-05-25T06:59:03.431Z,35.80
2019-05-25T07:01:33.591Z,35.80
2019-05-25T07:04:03.607Z,35.90
2019-05-25T07:06:34.088Z,35.80
2019-05-25T07:09:04.961Z,35.70
2019-05-25T07:11:34.975Z,35.50
2019-05-25T07:14:05.381Z,35.30
2019-05-25T07:16:35.861Z,35.10
2019-05-25T07:19:05.908Z,34.80
2019-05-25T07:21:39.472Z,34.60
2019-05-25T07:24:09.619Z,34.50
2019-05-25T07:26:40.083Z,34.50
2019-05-25T07:29:10.508Z,34.60
2019-05-25T07:31:41.689Z,34.50
2019-05-25T07:34:11.860Z,34.30
2019-05-25T07:36:42.018Z,34.00
2019-05-25T07:39:13.423Z,33.90
2019-05-25T07:41:51.267Z,33.80
2019-05-25T07:44:21.367Z,33.80
2019-05-25T07:46:56.968Z,33.90
2019-05-25T07:49:27.180Z,34.00
2019-05-25T07:51:57.385Z,34.20
2019-05-25T07:54:32.865Z,34.40
2019-05-25T07:57:03.051Z,34.40
2019-05-25T07:59:34.211Z,34.50
2019-05-25T08:02:04.312Z,34.60
2019-05-25T08:04:36.549Z,34.40
2019-05-25T08:07:06.994Z,34.20
2019-05-25T08:09:37.110Z,33.90
2019-05-25T08:12:07.331Z,33.50
2019-05-25T08:14:37.407Z,33.10
2019-05-25T08:17:07.524Z,32.60
2019-05-25T08:19:37.946Z,32.30
2019-05-25T08:22:08.503Z,32.00
2019-05-25T08:24:38.636Z,31.80
2019-05-25T08:27:08.831Z,31.70
2019-05-25T08:29:39.648Z,31.70
2019-05-25T08:32:12.528Z,31.90
2019-05-25T08:34:43.522Z,32.10
2019-05-25T08:37:13.655Z,32.40
2019-05-25T08:39:45.571Z,32.50
2019-05-25T08:42:28.437Z,32.40
2019-05-25T08:44:50.959Z,32.30
2019-05-25T08:47:21.381Z,32.10
2019-05-25T08:52:51.954Z,31.70
2019-05-25T08:55:22.041Z,31.50
2019-05-25T08:57:52.142Z,31.40
2019-05-25T09:00:22.415Z,31.30
2019-05-25T09:02:52.529Z,31.30
2019-05-25T09:05:22.608Z,31.40
2019-05-25T09:07:52.780Z,31.50
2019-05-25T09:10:22.933Z,31.70
2019-05-25T09:12:53.371Z,32.00
2019-05-25T09:15:40.223Z,32.40
2019-05-25T09:18:10.267Z,32.80
2019-05-25T09:20:40.336Z,33.20
2019-05-25T09:23:10.410Z,33.40
2019-05-25T09:25:40.654Z,33.60
2019-05-25T09:28:11.120Z,33.70
2019-05-25T09:30:41.292Z,33.90
2019-05-25T09:33:12.554Z,34.20
2019-05-25T09:35:43.293Z,34.60
2019-05-25T09:38:14.610Z,34.90
2019-05-25T09:40:44.790Z,35.20
2019-05-25T09:43:15.046Z,35.30
2019-05-25T09:45:45.169Z,35.40
2019-05-25T09:48:15.334Z,35.40
2019-05-25T09:50:45.801Z,35.40
2019-05-25T09:53:15.942Z,35.40
2019-05-25T09:55:46.309Z,35.60
2019-05-25T09:58:16.755Z,35.80
2019-05-25T10:00:47.426Z,36.00
2019-05-25T10:03:17.913Z,36.30
2019-05-25T10:05:47.996Z,36.70
2019-05-25T10:08:18.085Z,37.20
2019-05-25T10:10:48.591Z,37.60
2019-05-25T10:13:18.721Z,37.80
2019-05-25T10:15:49.767Z,37.90
2019-05-25T10:18:19.880Z,37.90
2019-05-25T10:20:50.049Z,37.70
2019-05-25T10:23:20.318Z,37.40
2019-05-25T10:25:50.420Z,37.00
2019-05-25T10:28:20.708Z,36.50
2019-05-25T10:30:51.410Z,35.90
2019-05-25T10:33:21.964Z,35.30
2019-05-25T10:35:52.314Z,34.80
2019-05-25T10:38:22.376Z,34.40
2019-05-25T10:40:52.569Z,34.00
2019-05-25T10:43:22.727Z,33.60
2019-05-25T10:45:52.888Z,33.20
2019-05-25T10:48:23.331Z,32.70
2019-05-25T10:51:09.520Z,32.20
2019-05-25T10:53:40.297Z,31.70
2019-05-25T10:56:11.468Z,31.10
2019-05-25T10:58:41.431Z,30.60
2019-05-25T11:01:11.687Z,30.20
2019-05-25T11:03:41.871Z,29.80
2019-05-25T11:06:11.971Z,29.50
2019-05-25T11:08:42.011Z,29.20
2019-05-25T11:11:12.143Z,28.90
2019-05-25T11:13:43.092Z,28.50
2019-05-25T11:16:15.062Z,28.30
2019-05-25T11:19:12.575Z,28.10
2019-05-25T11:21:43.213Z,27.80
2019-05-25T11:24:13.981Z,27.70
2019-05-25T11:26:44.299Z,27.50
2019-05-25T11:29:14.551Z,27.50
2019-05-25T11:31:54.033Z,27.40
2019-05-25T11:34:16.647Z,27.50
2019-05-25T11:36:47.163Z,27.60
2019-05-25T11:39:17.379Z,27.70
2019-05-25T11:41:48.051Z,27.80
2019-05-25T11:44:18.230Z,28.00
2019-05-25T11:46:48.344Z,28.30
2019-05-25T11:49:22.397Z,28.50
2019-05-25T11:51:50.193Z,28.70
2019-05-25T11:54:20.329Z,29.00
2019-05-25T11:56:50.436Z,29.20
2019-05-25T11:59:20.493Z,29.20
2019-05-25T12:01:50.564Z,29.30
2019-05-25T12:04:20.785Z,29.40
2019-05-25T12:06:50.853Z,29.60
2019-05-25T12:09:21.212Z,29.70
2019-05-25T12:11:51.213Z,29.90
2019-05-25T12:14:22.295Z,30.10
2019-05-25T12:16:52.338Z,30.30
2019-05-25T12:19:22.504Z,30.30
2019-05-25T12:21:52.934Z,30.40
2019-05-25T12:24:23.014Z,30.40
2019-05-25T12:27:05.469Z,30.40
2019-05-25T12:29:34.133Z,30.20
2019-05-25T12:32:34.484Z,30.20
2019-05-25T12:35:04.803Z,30.10
2019-05-25T12:37:35.096Z,30.00
2019-05-25T12:40:05.699Z,29.80
2019-05-25T12:42:35.813Z,29.70
2019-05-25T12:45:06.256Z,29.60
2019-05-25T12:47:37.340Z,29.60
2019-05-25T12:50:07.877Z,29.50
2019-05-25T12:52:37.956Z,29.50
2019-05-25T12:55:08.458Z,29.50
2019-05-25T12:57:38.577Z,29.50
2019-05-25T13:00:15.691Z,29.50
2019-05-25T13:02:41.724Z,29.40
2019-05-25T13:05:12.137Z,29.30
2019-05-25T13:07:42.346Z,29.30
2019-05-25T13:10:12.585Z,29.20
2019-05-25T13:12:43.053Z,29.10
2019-05-25T13:15:13.268Z,29.10
2019-05-25T13:17:44.026Z,29.00
2019-05-25T13:20:14.086Z,29.00
2019-05-25T13:22:45.305Z,28.80
2019-05-25T13:25:15.817Z,28.70
2019-05-25T13:27:46.090Z,28.60
2019-05-25T13:30:18.297Z,28.40
2019-05-25T13:32:48.448Z,28.20
2019-05-25T13:35:18.630Z,28.00
2019-05-25T13:37:49.617Z,27.70
2019-05-25T13:40:19.816Z,27.40
2019-05-25T13:42:51.160Z,27.20
2019-05-25T13:45:21.294Z,26.90
2019-05-25T13:47:51.511Z,26.70
2019-05-25T13:50:21.845Z,26.50
2019-05-25T13:52:52.175Z,26.30
2019-05-25T13:55:22.376Z,26.20
2019-05-25T13:57:52.619Z,26.10
2019-05-25T14:00:22.700Z,26.00
2019-05-25T14:02:53.526Z,26.00
2019-05-25T14:05:23.820Z,26.00
2019-05-25T14:07:53.990Z,26.00
2019-05-25T14:10:24.259Z,25.90
2019-05-25T14:12:54.982Z,25.90
2019-05-25T14:15:25.171Z,25.90
2019-05-25T14:17:56.107Z,25.80
2019-05-25T14:20:26.624Z,25.70
2019-05-25T14:22:57.171Z,25.60
2019-05-25T14:25:27.553Z,25.50
2019-05-25T14:27:58.560Z,25.50
2019-05-25T14:30:29.241Z,25.40
2019-05-25T14:33:03.435Z,25.30
2019-05-25T14:35:40.847Z,25.20
2019-05-25T14:38:12.319Z,25.10
2019-05-25T14:40:45.333Z,25.00
2019-05-25T14:43:15.983Z,24.90
2019-05-25T14:45:47.536Z,24.80
2019-05-25T14:48:19.597Z,24.70
2019-05-25T14:50:50.210Z,24.70
2019-05-25T14:53:20.876Z,24.70
2019-05-25T14:55:50.968Z,24.70
2019-05-25T14:58:21.302Z,24.70
2019-05-25T15:00:51.762Z,24.80
2019-05-25T15:03:22.333Z,24.80
2019-05-25T15:05:52.749Z,24.80
2019-05-25T15:08:23.029Z,24.90
2019-05-25T15:10:53.145Z,24.90
2019-05-25T15:13:24.299Z,24.90
2019-05-25T15:15:54.432Z,24.90
2019-05-25T15:18:24.886Z,24.90
2019-05-25T15:20:56.008Z,25.00
2019-05-25T15:23:26.376Z,25.00
2019-05-25T15:26:03.158Z,25.10
2019-05-25T15:28:42.330Z,25.20
2019-05-25T15:31:12.545Z,25.20
2019-05-25T15:33:43.897Z,25.20
2019-05-25T15:36:14.502Z,25.30
2019-05-25T15:38:50.117Z,25.30
2019-05-25T15:41:20.332Z,25.30
2019-05-25T15:43:50.689Z,25.40
2019-05-25T15:46:21.185Z,25.40
2019-05-25T15:48:51.435Z,25.40
2019-05-25T15:51:21.594Z,25.40
2019-05-25T15:53:51.675Z,25.50
2019-05-25T15:56:22.365Z,25.50
2019-05-25T15:58:52.611Z,25.50
2019-05-25T16:01:22.701Z,25.60
2019-05-25T16:03:53.297Z,25.70
2019-05-25T16:06:24.050Z,25.80
2019-05-25T16:09:14.196Z,25.80
2019-05-25T16:11:44.524Z,25.90
2019-05-25T16:14:14.817Z,26.00
2019-05-25T16:16:45.069Z,26.00
2019-05-25T16:19:15.317Z,26.00
2019-05-25T16:21:45.263Z,26.00
2019-05-25T16:24:15.952Z,26.10
2019-05-25T16:26:46.690Z,26.10
2019-05-25T16:29:16.377Z,26.10
2019-05-25T16:31:45.910Z,26.20
2019-05-25T16:34:15.895Z,26.20
2019-05-25T16:36:45.820Z,26.20
2019-05-25T16:39:15.730Z,26.20
2019-05-25T16:41:45.381Z,26.20
2019-05-25T16:44:15.242Z,26.20
2019-05-25T16:46:44.787Z,26.20
2019-05-25T16:49:14.623Z,26.20
2019-05-25T16:51:44.238Z,26.10
2019-05-25T16:54:13.830Z,26.10
2019-05-25T16:56:43.444Z,26.00
2019-05-25T16:59:13.304Z,26.00
2019-05-25T17:01:48.142Z,26.00
2019-05-25T17:04:14.256Z,26.00
2019-05-25T17:06:45.309Z,26.00
2019-05-25T17:09:14.914Z,25.90
2019-05-25T17:11:44.919Z,25.90
2019-05-25T17:14:14.519Z,25.90
2019-05-25T17:16:44.124Z,25.90
2019-05-25T17:19:13.720Z,25.90
2019-05-25T17:21:43.248Z,25.90
2019-05-25T17:24:12.843Z,25.90
2019-05-25T17:26:42.562Z,25.90
2019-05-25T17:29:12.404Z,25.90
2019-05-25T17:31:42.378Z,25.80
2019-05-25T17:34:12.052Z,25.80
2019-05-25T17:36:42.626Z,25.70
2019-05-25T17:39:12.454Z,25.60
2019-05-25T17:41:42.134Z,25.50
2019-05-25T17:44:13.053Z,25.50
2019-05-25T17:46:43.655Z,25.40
2019-05-25T17:49:13.993Z,25.30
2019-05-25T17:51:43.800Z,25.20
2019-05-25T17:54:13.594Z,25.10
2019-05-25T17:56:43.179Z,25.10
2019-05-25T17:59:12.807Z,25.00
2019-05-25T18:01:42.532Z,25.00
2019-05-25T18:04:12.071Z,25.00
2019-05-25T18:06:41.749Z,25.00
2019-05-25T18:09:11.312Z,25.00
2019-05-25T18:11:41.318Z,25.00
2019-05-25T18:14:10.902Z,24.90
2019-05-25T18:16:40.479Z,24.90
2019-05-25T18:19:10.146Z,24.90
2019-05-25T18:21:39.734Z,24.80
2019-05-25T18:24:09.420Z,24.80
2019-05-25T18:26:39.063Z,24.70
2019-05-25T18:29:08.632Z,24.70
2019-05-25T18:31:38.318Z,24.60
2019-05-25T18:34:21.222Z,24.60
2019-05-25T18:36:39.131Z,24.50
2019-05-25T18:39:10.630Z,24.50
2019-05-25T18:41:40.290Z,24.40
2019-05-25T18:44:10.239Z,24.40
2019-05-25T18:46:39.890Z,24.30
2019-05-25T18:49:09.595Z,24.30
2019-05-25T18:51:39.534Z,24.20
2019-05-25T18:54:09.306Z,24.10
2019-05-25T18:56:39.023Z,24.10
2019-05-25T18:59:08.915Z,24.10
2019-05-25T19:01:38.802Z,24.00
2019-05-25T19:04:08.843Z,23.90
2019-05-25T19:06:38.577Z,23.90
2019-05-25T19:09:08.638Z,23.80
2019-05-25T19:11:38.334Z,23.70
2019-05-25T19:14:08.321Z,23.60
2019-05-25T19:16:37.875Z,23.50
2019-05-25T19:19:07.479Z,23.40
2019-05-25T19:21:38.354Z,23.40
2019-05-25T19:24:08.926Z,23.30
2019-05-25T19:26:38.467Z,23.10
2019-05-25T19:29:08.311Z,23.10
2019-05-25T19:31:38.106Z,23.00
2019-05-25T19:34:07.935Z,22.90
2019-05-25T19:36:37.747Z,22.80
2019-05-25T19:39:08.186Z,22.80
2019-05-25T19:41:37.731Z,22.70
2019-05-25T19:44:07.359Z,22.70
2019-05-25T19:46:37.982Z,22.60
2019-05-25T19:49:07.624Z,22.60
2019-05-25T19:51:37.574Z,22.50
2019-05-25T19:54:07.206Z,22.50
2019-05-25T19:56:36.945Z,22.40
2019-05-25T19:59:06.527Z,22.30
2019-05-25T20:01:36.219Z,22.20
2019-05-25T20:04:05.948Z,22.20
2019-05-25T20:06:35.667Z,22.20
2019-05-25T20:09:06.651Z,22.10
2019-05-25T20:11:36.539Z,22.00
2019-05-25T20:14:06.516Z,22.00
2019-05-25T20:16:36.081Z,21.90
2019-05-25T20:19:05.617Z,21.80
2019-05-25T20:21:35.254Z,21.70
2019-05-25T20:24:04.827Z,21.60
2019-05-25T20:26:34.590Z,21.60
2019-05-25T20:29:04.143Z,21.50
2019-05-25T20:31:33.742Z,21.50
2019-05-25T20:34:03.762Z,21.40
2019-05-25T20:36:33.314Z,21.40
2019-05-25T20:39:02.894Z,21.30
2019-05-25T20:41:32.925Z,21.30
2019-05-25T20:44:02.460Z,21.30
2019-05-25T20:46:32.058Z,21.20
2019-05-25T20:49:01.650Z,21.20
2019-05-25T20:51:31.767Z,21.20
2019-05-25T20:54:01.423Z,21.10
2019-05-25T20:56:31.081Z,21.10
2019-05-25T20:59:01.682Z,21.10
2019-05-25T21:01:31.220Z,21.00
2019-05-25T21:04:00.777Z,20.90
2019-05-25T21:06:30.963Z,20.90
2019-05-25T21:09:00.520Z,20.80
2019-05-25T21:11:30.087Z,20.70
2019-05-25T21:13:59.908Z,20.60
2019-05-25T21:16:29.467Z,20.60
2019-05-25T21:19:02.870Z,20.50
2019-05-25T21:21:30.594Z,20.40
2019-05-25T21:24:00.132Z,20.30
2019-05-25T21:26:29.670Z,20.20
2019-05-25T21:28:59.191Z,20.10
2019-05-25T21:31:30.767Z,20.10
2019-05-25T21:34:01.937Z,20.00
2019-05-25T21:36:32.515Z,19.90
2019-05-25T21:39:02.086Z,19.90
2019-05-25T21:41:33.101Z,19.80
2019-05-25T21:44:02.636Z,19.70
2019-05-25T21:46:32.482Z,19.80
2019-05-25T21:49:02.417Z,19.70
2019-05-25T21:51:32.179Z,19.70
2019-05-25T21:54:02.118Z,19.70
2019-05-25T21:56:31.721Z,19.70
2019-05-25T21:59:01.360Z,19.70
2019-05-25T22:01:30.983Z,19.70
2019-05-25T22:04:00.801Z,19.70
2019-05-25T22:06:30.324Z,19.70
2019-05-25T22:09:00.116Z,19.70
2019-05-25T22:11:31.412Z,19.60
2019-05-25T22:14:00.922Z,19.60
2019-05-25T22:16:30.770Z,19.60
2019-05-25T22:19:00.544Z,19.50
2019-05-25T22:21:30.119Z,19.50
2019-05-25T22:23:59.661Z,19.50
2019-05-25T22:26:29.241Z,19.40
2019-05-25T22:28:58.929Z,19.40
2019-05-25T22:31:28.546Z,19.40
2019-05-25T22:33:59.398Z,19.40
2019-05-25T22:36:39.824Z,19.30
2019-05-25T22:39:00.618Z,19.30
2019-05-25T22:41:31.091Z,19.30
2019-05-25T22:44:00.964Z,19.30
2019-05-25T22:46:30.552Z,19.20
2019-05-25T22:49:00.255Z,19.30
2019-05-25T22:51:29.883Z,19.30
2019-05-25T22:54:02.950Z,19.20
2019-05-25T22:56:48.473Z,19.20
2019-05-25T22:59:19.506Z,19.20
2019-05-25T23:01:52.473Z,19.20
2019-05-25T23:04:23.777Z,19.20
2019-05-25T23:06:58.327Z,19.20
2019-05-25T23:09:24.638Z,19.30
2019-05-25T23:11:54.453Z,19.30
2019-05-25T23:14:24.291Z,19.30
2019-05-25T23:16:54.208Z,19.30
2019-05-25T23:19:23.850Z,19.30
2019-05-25T23:21:53.691Z,19.30
2019-05-25T23:24:23.210Z,19.30
2019-05-25T23:26:53.053Z,19.30
2019-05-25T23:29:22.598Z,19.30
2019-05-25T23:31:52.150Z,19.30
2019-05-25T23:34:21.678Z,19.30
2019-05-25T23:36:51.192Z,19.40
2019-05-25T23:39:21.026Z,19.40
2019-05-25T23:41:50.562Z,19.40
2019-05-25T23:44:20.099Z,19.40
2019-05-25T23:46:49.707Z,19.40
2019-05-25T23:49:26.978Z,19.40
2019-05-25T23:51:56.523Z,19.30
2019-05-25T23:54:26.075Z,19.30
2019-05-25T23:56:55.849Z,19.30
2019-05-25T23:59:25.389Z,19.30
